Time;durP1;ratioP1;P1;durP2;ratioP2;P2;SDS_P1;SDS_P2;PMS_P1;PMS_P2;Temp;Humidity;BMP_temperature;BMP_pressure;BME280_temperature;BME280_humidity;BME280_pressure;Samples;Min_cycle;Max_cycle;Signal;HPM_P1;HPM_P2
2023/11/16 00:02:27;;;;;;;2.30;1.90;;;10.10;98.00;;;;;;4992354;28;20464;-69
2023/11/16 00:04:54;;;;;;;3.90;2.10;;;10.00;98.00;;;;;;4992266;28;20572;-69
2023/11/16 00:07:23;;;;;;;4.57;2.00;;;10.00;98.00;;;;;;4992286;28;20463;-68
2023/11/16 00:09:50;;;;;;;3.20;2.17;;;10.00;98.00;;;;;;4992397;28;20484;-68
2023/11/16 00:12:20;;;;;;;4.20;2.10;;;9.80;98.00;;;;;;4990932;28;20476;-68
2023/11/16 00:14:47;;;;;;;3.87;2.03;;;9.80;98.00;;;;;;4992193;28;20460;-69
2023/11/16 00:17:14;;;;;;;5.03;1.97;;;9.80;98.00;;;;;;4992053;28;20482;-69
2023/11/16 00:19:42;;;;;;;4.20;1.97;;;9.80;98.00;;;;;;4991965;28;20471;-69
2023/11/16 00:22:10;;;;;;;4.30;2.10;;;9.80;98.00;;;;;;4992181;28;20452;-68
2023/11/16 00:24:37;;;;;;;2.63;1.80;;;9.90;98.00;;;;;;4992242;28;20456;-69
2023/11/16 00:27:05;;;;;;;4.30;2.10;;;9.90;98.00;;;;;;4990668;28;20962;-70
2023/11/16 00:29:35;;;;;;;6.07;2.33;;;10.10;98.00;;;;;;4991850;28;20579;-69
2023/11/16 00:32:04;;;;;;;2.87;2.13;;;10.00;98.00;;;;;;4991807;28;20572;-69
2023/11/16 00:34:31;;;;;;;3.60;1.93;;;9.90;98.00;;;;;;4992084;28;20872;-69
2023/11/16 00:36:59;;;;;;;2.70;1.97;;;10.00;98.00;;;;;;4992100;28;20456;-70
2023/11/16 00:39:26;;;;;;;6.33;1.90;;;10.10;98.00;;;;;;4992194;28;20527;-69
2023/11/16 00:41:53;;;;;;;4.57;2.27;;;10.10;98.00;;;;;;4990573;28;20588;-70
2023/11/16 00:44:21;;;;;;;7.80;2.80;;;10.10;98.00;;;;;;4991537;28;20448;-69
2023/11/16 00:46:49;;;;;;;2.47;1.80;;;10.00;98.00;;;;;;4991772;28;20488;-69
2023/11/16 00:49:16;;;;;;;5.30;2.23;;;10.00;98.00;;;;;;4991535;28;20577;-70
2023/11/16 00:51:46;;;;;;;5.37;2.20;;;9.80;98.00;;;;;;4991638;28;20455;-69
2023/11/16 00:54:13;;;;;;;4.63;2.30;;;9.80;98.00;;;;;;4990423;28;20460;-70
2023/11/16 00:56:41;;;;;;;5.70;2.00;;;9.70;98.00;;;;;;4991691;28;20463;-70
2023/11/16 00:59:10;;;;;;;5.43;2.20;;;9.60;98.00;;;;;;4991559;28;20460;-70
2023/11/16 01:01:37;;;;;;;2.43;1.93;;;9.60;98.00;;;;;;4991754;28;20449;-70
2023/11/16 01:04:09;;;;;;;4.67;2.37;;;9.60;98.00;;;;;;4990544;28;20466;-69
2023/11/16 01:06:38;;;;;;;2.90;1.80;;;9.60;98.00;;;;;;4991738;28;20516;-69
2023/11/16 01:09:06;;;;;;;5.90;2.13;;;9.50;98.00;;;;;;4995486;28;20643;-69
2023/11/16 01:11:36;;;;;;;4.77;2.37;;;9.50;98.00;;;;;;4995529;28;20955;-69
2023/11/16 01:14:03;;;;;;;5.03;2.60;;;9.40;98.00;;;;;;4995575;28;20452;-70
2023/11/16 01:16:32;;;;;;;3.10;2.20;;;9.40;98.00;;;;;;4995488;28;20486;-69
2023/11/16 01:19:00;;;;;;;2.60;1.70;;;9.60;98.00;;;;;;4995396;28;20453;-70
2023/11/16 01:21:29;;;;;;;4.63;2.03;;;9.70;98.00;;;;;;4995371;28;20529;-70
2023/11/16 01:24:02;;;;;;;5.53;2.10;;;9.80;98.00;;;;;;4995405;28;20524;-70
2023/11/16 01:26:30;;;;;;;4.47;2.20;;;9.70;98.00;;;;;;4995780;28;20464;-69
2023/11/16 01:29:01;;;;;;;5.33;2.37;;;9.70;98.00;;;;;;4995486;28;20460;-69
2023/11/16 01:31:29;;;;;;;5.40;2.40;;;9.60;98.00;;;;;;4995447;28;20540;-69
2023/11/16 01:33:56;;;;;;;3.63;2.23;;;9.60;98.00;;;;;;4995332;28;20460;-69
2023/11/16 01:36:24;;;;;;;3.60;1.90;;;9.60;98.00;;;;;;4995160;28;20512;-69
2023/11/16 01:38:52;;;;;;;5.13;2.70;;;9.70;98.00;;;;;;4995072;28;20941;-69
2023/11/16 01:41:20;;;;;;;5.07;2.20;;;9.60;98.00;;;;;;4994986;28;20453;-69
2023/11/16 01:43:47;;;;;;;4.50;1.90;;;9.60;98.00;;;;;;4995134;28;20456;-67
2023/11/16 01:46:17;;;;;;;4.43;2.10;;;9.80;98.00;;;;;;4993640;28;20481;-68
2023/11/16 01:48:45;;;;;;;5.97;1.93;;;9.80;98.00;;;;;;4993611;28;20456;-68
2023/11/16 01:51:14;;;;;;;2.70;1.90;;;9.70;98.00;;;;;;4994777;28;20581;-68
2023/11/16 01:53:45;;;;;;;6.37;2.13;;;9.80;98.00;;;;;;4994694;28;20479;-68
2023/11/16 01:56:16;;;;;;;3.83;1.87;;;9.90;98.00;;;;;;4994518;28;20987;-68
2023/11/16 01:58:45;;;;;;;2.47;1.80;;;10.00;98.00;;;;;;4993340;28;20468;-68
2023/11/16 02:01:13;;;;;;;2.20;1.53;;;10.00;98.00;;;;;;4994691;28;20821;-68
2023/11/16 02:03:40;;;;;;;2.73;1.70;;;9.90;98.00;;;;;;4993246;28;20462;-69
2023/11/16 02:06:12;;;;;;;4.37;2.10;;;9.90;98.00;;;;;;4994535;28;20548;-68
2023/11/16 02:08:40;;;;;;;4.67;1.80;;;9.80;98.00;;;;;;4993415;28;20462;-68
2023/11/16 02:11:07;;;;;;;2.70;1.97;;;9.80;98.00;;;;;;4994369;28;20602;-68
2023/11/16 02:13:36;;;;;;;3.93;2.03;;;9.90;98.00;;;;;;4994365;28;20456;-69
2023/11/16 02:16:06;;;;;;;2.47;1.63;;;9.90;98.00;;;;;;4994170;28;20464;-68
2023/11/16 02:18:33;;;;;;;3.13;1.73;;;10.00;98.00;;;;;;4993520;28;20947;-67
2023/11/16 02:21:00;;;;;;;2.73;1.80;;;9.90;98.00;;;;;;4994169;28;20444;-69
2023/11/16 02:23:31;;;;;;;4.20;1.80;;;10.00;98.00;;;;;;4994315;28;20461;-68
2023/11/16 02:25:58;;;;;;;3.10;2.00;;;10.00;98.00;;;;;;4994047;28;20560;-69
2023/11/16 02:28:25;;;;;;;4.00;1.80;;;9.90;98.00;;;;;;4994182;28;20767;-69
2023/11/16 02:30:52;;;;;;;9.53;2.00;;;9.70;98.00;;;;;;4992975;28;20488;-69
2023/11/16 02:33:20;;;;;;;2.77;1.90;;;9.70;98.00;;;;;;4993952;28;20453;-69
2023/11/16 02:35:48;;;;;;;1.80;1.40;;;9.70;98.00;;;;;;4993926;28;20480;-69
2023/11/16 02:38:16;;;;;;;3.60;1.90;;;9.70;98.00;;;;;;4992476;28;20462;-69
2023/11/16 02:40:46;;;;;;;3.00;1.90;;;9.60;98.00;;;;;;4993697;28;20460;-69
2023/11/16 02:43:14;;;;;;;3.27;1.90;;;9.50;98.00;;;;;;4993841;28;20458;-70
2023/11/16 02:45:41;;;;;;;2.13;1.73;;;9.50;98.00;;;;;;4993910;28;20499;-68
2023/11/16 02:48:08;;;;;;;5.20;2.03;;;9.50;98.00;;;;;;4993691;28;20456;-69
2023/11/16 02:50:35;;;;;;;6.97;1.97;;;9.50;98.00;;;;;;4993700;28;20495;-69
2023/11/16 02:53:03;;;;;;;4.63;1.90;;;9.60;98.00;;;;;;4993561;28;20473;-69
2023/11/16 02:55:34;;;;;;;2.57;2.00;;;9.70;98.00;;;;;;4993602;28;20491;-69
2023/11/16 02:58:02;;;;;;;2.97;2.00;;;9.70;98.00;;;;;;4993675;28;20456;-69
2023/11/16 03:00:31;;;;;;;3.77;2.17;;;9.70;98.00;;;;;;4993596;28;20468;-69
2023/11/16 03:02:58;;;;;;;3.50;2.00;;;9.80;98.00;;;;;;4993478;28;20551;-68
2023/11/16 03:05:26;;;;;;;2.63;1.70;;;9.80;98.00;;;;;;4993584;28;20807;-69
2023/11/16 03:07:53;;;;;;;4.83;1.80;;;9.90;98.00;;;;;;4993719;28;20541;-68
2023/11/16 03:10:21;;;;;;;3.17;2.00;;;9.90;98.00;;;;;;4993497;28;20489;-69
2023/11/16 03:12:48;;;;;;;5.77;2.13;;;9.90;98.00;;;;;;4993431;28;20519;-69
2023/11/16 03:15:19;;;;;;;9.63;2.50;;;9.90;98.00;;;;;;4993255;28;20460;-69
2023/11/16 03:17:46;;;;;;;3.70;1.90;;;9.90;98.00;;;;;;4992156;28;20457;-69
2023/11/16 03:20:16;;;;;;;3.70;2.10;;;9.80;98.00;;;;;;4993489;28;21075;-69
2023/11/16 03:22:43;;;;;;;2.77;1.80;;;9.70;98.00;;;;;;4993529;28;20448;-69
2023/11/16 03:25:10;;;;;;;4.57;2.13;;;9.60;98.00;;;;;;4993113;28;20464;-69
2023/11/16 03:27:37;;;;;;;2.93;1.83;;;9.50;98.00;;;;;;4992988;28;20464;-69
2023/11/16 03:30:06;;;;;;;4.67;2.23;;;9.40;98.00;;;;;;4992147;28;20520;-69
2023/11/16 03:32:35;;;;;;;3.43;2.10;;;9.20;98.00;;;;;;4992806;28;20490;-69
2023/11/16 03:35:03;;;;;;;4.60;2.07;;;9.10;98.00;;;;;;4991639;28;20459;-69
2023/11/16 03:37:31;;;;;;;3.20;1.90;;;9.10;98.00;;;;;;4992673;28;20488;-69
2023/11/16 03:39:58;;;;;;;2.60;1.77;;;9.10;98.00;;;;;;4991347;28;20527;-69
2023/11/16 03:42:26;;;;;;;5.30;2.40;;;9.10;98.00;;;;;;4991450;28;20450;-69
2023/11/16 03:44:53;;;;;;;4.87;2.00;;;9.10;98.00;;;;;;4992702;28;20950;-69
2023/11/16 03:47:20;;;;;;;4.43;1.90;;;9.10;98.00;;;;;;4991264;28;20633;-69
2023/11/16 03:49:49;;;;;;;3.13;2.20;;;9.00;98.00;;;;;;4992673;28;20487;-68
2023/11/16 03:52:16;;;;;;;2.20;1.77;;;9.00;98.00;;;;;;4992509;28;20525;-69
2023/11/16 03:54:44;;;;;;;3.10;2.00;;;8.90;98.00;;;;;;4992530;28;20470;-69
2023/11/16 03:57:12;;;;;;;3.20;1.87;;;8.90;98.00;;;;;;4992028;28;20461;-69
2023/11/16 03:59:39;;;;;;;5.37;2.10;;;8.90;98.00;;;;;;4992418;28;20456;-69
2023/11/16 04:02:06;;;;;;;5.20;2.10;;;8.80;98.00;;;;;;4992261;28;20453;-70
2023/11/16 04:04:33;;;;;;;5.50;2.40;;;8.90;98.00;;;;;;4992372;28;20500;-70
2023/11/16 04:07:02;;;;;;;4.40;2.03;;;8.90;98.00;;;;;;4992382;28;20969;-69
2023/11/16 04:09:32;;;;;;;3.50;2.23;;;9.00;98.00;;;;;;4992470;28;20986;-69
2023/11/16 04:12:00;;;;;;;3.63;1.90;;;9.00;98.00;;;;;;4992273;28;20456;-69
2023/11/16 04:14:27;;;;;;;4.80;2.33;;;9.00;98.00;;;;;;4991008;28;20818;-69
2023/11/16 04:16:54;;;;;;;5.73;2.07;;;9.10;98.00;;;;;;4991016;28;20530;-70
2023/11/16 04:19:25;;;;;;;6.80;1.87;;;9.10;98.00;;;;;;4990956;28;20465;-69
2023/11/16 04:21:54;;;;;;;3.10;1.90;;;9.10;98.00;;;;;;4992292;28;20482;-69
2023/11/16 04:24:23;;;;;;;5.30;1.83;;;9.00;98.00;;;;;;4992015;28;20453;-69
2023/11/16 04:26:50;;;;;;;2.83;1.90;;;9.20;98.00;;;;;;4992133;28;20463;-69
2023/11/16 04:29:17;;;;;;;7.07;2.23;;;9.20;98.00;;;;;;4992026;28;21005;-69
2023/11/16 04:31:45;;;;;;;2.97;2.30;;;9.50;98.00;;;;;;4991937;28;20524;-69
2023/11/16 04:34:12;;;;;;;4.33;2.17;;;9.30;98.00;;;;;;4991951;28;21031;-69
2023/11/16 04:36:44;;;;;;;3.50;1.87;;;9.30;98.00;;;;;;4992024;28;20455;-69
2023/11/16 04:39:12;;;;;;;7.60;2.17;;;9.20;98.00;;;;;;4991967;28;20492;-69
2023/11/16 04:41:45;;;;;;;3.63;1.70;;;9.20;98.00;;;;;;4990479;28;20507;-69
2023/11/16 04:44:12;;;;;;;2.73;1.80;;;9.20;98.00;;;;;;4991750;28;20558;-68
2023/11/16 04:46:46;;;;;;;3.43;2.00;;;9.10;98.00;;;;;;4990763;28;20461;-69
2023/11/16 04:49:13;;;;;;;2.30;1.70;;;9.00;98.00;;;;;;4992039;28;20461;-69
2023/11/16 04:51:41;;;;;;;3.67;1.87;;;8.90;98.00;;;;;;4992095;28;20574;-69
2023/11/16 04:54:09;;;;;;;3.20;1.97;;;8.90;98.00;;;;;;4991926;28;20547;-69
2023/11/16 04:56:38;;;;;;;4.40;1.83;;;8.90;98.00;;;;;;4991523;28;20859;-69
2023/11/16 04:59:08;;;;;;;2.40;1.90;;;8.90;98.00;;;;;;4991516;28;20506;-69
2023/11/16 05:01:35;;;;;;;2.40;1.90;;;8.90;98.00;;;;;;4991701;28;20472;-69
2023/11/16 05:04:03;;;;;;;1.93;1.50;;;8.90;98.00;;;;;;4991543;28;20922;-69
2023/11/16 05:06:30;;;;;;;3.27;1.80;;;8.80;98.00;;;;;;4990449;28;20456;-69
2023/11/16 05:08:57;;;;;;;1.93;1.67;;;8.80;98.00;;;;;;4991201;28;20508;-69
2023/11/16 05:11:25;;;;;;;3.83;1.87;;;8.80;98.00;;;;;;4991666;28;20490;-69
2023/11/16 05:13:52;;;;;;;2.63;1.90;;;8.80;98.00;;;;;;4991806;28;20460;-69
2023/11/16 05:16:22;;;;;;;6.27;1.90;;;8.70;98.00;;;;;;4992000;28;20451;-69
2023/11/16 05:18:49;;;;;;;2.27;1.80;;;8.70;98.00;;;;;;4991648;28;20459;-69
2023/11/16 05:21:16;;;;;;;2.60;1.90;;;8.60;98.00;;;;;;4991441;28;20468;-69
2023/11/16 05:23:43;;;;;;;2.63;1.87;;;8.60;98.00;;;;;;4991317;28;20463;-68
2023/11/16 05:26:10;;;;;;;3.60;2.00;;;8.70;98.00;;;;;;4991393;28;20861;-68
2023/11/16 05:28:37;;;;;;;5.73;2.27;;;8.70;98.00;;;;;;4990224;28;20460;-68
2023/11/16 05:31:05;;;;;;;2.40;1.60;;;8.80;98.00;;;;;;4989641;28;20488;-69
2023/11/16 05:33:34;;;;;;;3.50;1.90;;;8.80;98.00;;;;;;4991154;28;20452;-69
2023/11/16 05:36:01;;;;;;;2.27;1.73;;;8.80;98.00;;;;;;4990801;28;20463;-69
2023/11/16 05:38:28;;;;;;;1.70;1.30;;;8.80;98.00;;;;;;4989452;28;20453;-69
2023/11/16 05:40:55;;;;;;;2.30;1.60;;;8.70;98.00;;;;;;4991299;28;20996;-69
2023/11/16 05:43:22;;;;;;;1.93;1.70;;;8.70;98.00;;;;;;4991097;28;20471;-69
2023/11/16 05:45:50;;;;;;;4.90;2.10;;;8.70;98.00;;;;;;4990034;28;20448;-69
2023/11/16 05:48:17;;;;;;;2.63;1.60;;;8.60;98.00;;;;;;4991146;28;20456;-69
2023/11/16 05:50:46;;;;;;;2.30;1.63;;;8.60;98.00;;;;;;4991253;28;20484;-68
2023/11/16 05:53:13;;;;;;;4.27;1.87;;;8.70;98.00;;;;;;4991127;28;20456;-69
2023/11/16 05:55:40;;;;;;;2.13;1.80;;;8.90;98.00;;;;;;4994237;28;20470;-69
2023/11/16 05:58:07;;;;;;;4.40;1.93;;;9.00;98.00;;;;;;4994376;28;20471;-69
2023/11/16 06:00:36;;;;;;;3.57;2.30;;;9.00;98.00;;;;;;4994694;28;20463;-69
2023/11/16 06:03:05;;;;;;;2.10;1.80;;;8.90;98.00;;;;;;4994759;28;20470;-69
2023/11/16 06:05:33;;;;;;;2.40;1.60;;;8.90;98.00;;;;;;4993510;28;20508;-68
2023/11/16 06:08:02;;;;;;;8.40;2.27;;;8.80;98.00;;;;;;4994503;28;20883;-69
2023/11/16 06:10:29;;;;;;;1.90;1.70;;;8.80;98.00;;;;;;4993428;28;20478;-69
2023/11/16 06:12:59;;;;;;;3.97;1.80;;;8.80;98.00;;;;;;4993316;28;20457;-69
2023/11/16 06:15:28;;;;;;;7.70;2.10;;;8.70;98.00;;;;;;4994625;28;20644;-69
2023/11/16 06:17:57;;;;;;;5.17;2.30;;;8.60;98.00;;;;;;4994427;28;20458;-69
2023/11/16 06:20:25;;;;;;;2.93;1.97;;;8.60;98.00;;;;;;4994509;28;20550;-68
2023/11/16 06:22:52;;;;;;;3.20;2.03;;;8.50;98.00;;;;;;4994630;28;20628;-69
2023/11/16 06:25:20;;;;;;;3.90;2.20;;;8.50;98.00;;;;;;4993056;28;20456;-69
2023/11/16 06:27:48;;;;;;;2.70;2.10;;;8.50;98.00;;;;;;4994554;28;20462;-70
2023/11/16 06:30:16;;;;;;;3.50;2.23;;;8.60;98.00;;;;;;4994615;28;20478;-69
2023/11/16 06:32:44;;;;;;;3.10;2.10;;;8.60;98.00;;;;;;4994343;28;20494;-68
2023/11/16 06:35:11;;;;;;;2.80;2.03;;;8.60;98.00;;;;;;4994287;28;20466;-70
2023/11/16 06:37:38;;;;;;;3.90;2.00;;;8.50;98.00;;;;;;4994355;28;20548;-69
2023/11/16 06:40:08;;;;;;;2.83;1.90;;;8.60;98.00;;;;;;4994161;28;21047;-69
2023/11/16 06:42:37;;;;;;;5.00;2.00;;;8.60;98.00;;;;;;4994245;28;20510;-70
2023/11/16 06:45:13;;;;;;;2.20;1.90;;;8.60;98.00;;;;;;4993910;28;20463;-69
2023/11/16 06:47:40;;;;;;;4.20;2.30;;;8.70;98.00;;;;;;4994000;28;20470;-69
2023/11/16 06:50:12;;;;;;;9.90;2.40;;;8.70;98.00;;;;;;4993700;28;21027;-69
2023/11/16 06:52:41;;;;;;;4.50;2.20;;;8.80;98.00;;;;;;4993808;28;20575;-69
2023/11/16 06:55:11;;;;;;;4.73;2.37;;;8.80;98.00;;;;;;4993777;28;20471;-69
2023/11/16 06:57:41;;;;;;;3.10;1.77;;;8.70;98.00;;;;;;4994120;28;20456;-64
2023/11/16 07:00:15;;;;;;;3.00;1.97;;;8.70;98.00;;;;;;4994760;28;20461;-63
2023/11/16 07:02:45;;;;;;;7.80;2.77;;;8.80;98.00;;;;;;4995853;28;20469;-64
2023/11/16 07:05:12;;;;;;;3.67;2.33;;;8.80;98.00;;;;;;4994333;28;20518;-63
2023/11/16 07:07:40;;;;;;;7.20;3.20;;;8.70;98.00;;;;;;4995493;28;20480;-64
2023/11/16 07:10:09;;;;;;;8.07;2.70;;;8.80;98.00;;;;;;4994490;28;20460;-63
2023/11/16 07:12:40;;;;;;;5.60;2.30;;;8.70;98.00;;;;;;4993222;28;20484;-64
2023/11/16 07:15:09;;;;;;;7.67;3.07;;;8.60;98.00;;;;;;4993850;28;20993;-64
2023/11/16 07:17:38;;;;;;;7.33;2.80;;;8.50;98.00;;;;;;4993820;28;20985;-65
2023/11/16 07:20:09;;;;;;;7.17;3.00;;;8.50;98.00;;;;;;4993516;28;20456;-64
2023/11/16 07:22:36;;;;;;;4.63;2.60;;;8.40;98.00;;;;;;4993620;28;20456;-64
2023/11/16 07:25:06;;;;;;;6.03;3.03;;;8.30;98.00;;;;;;4993186;28;20462;-64
2023/11/16 07:27:33;;;;;;;4.60;2.43;;;8.30;98.00;;;;;;4992059;28;20483;-64
2023/11/16 07:30:00;;;;;;;3.60;2.40;;;8.30;98.00;;;;;;4993350;28;20459;-64
2023/11/16 07:32:30;;;;;;;3.93;2.53;;;8.40;98.00;;;;;;4992908;28;20494;-64
2023/11/16 07:34:58;;;;;;;4.73;2.80;;;8.40;98.00;;;;;;4993135;28;20452;-64
2023/11/16 07:37:25;;;;;;;4.80;2.60;;;8.40;98.00;;;;;;4993130;28;20459;-65
2023/11/16 07:39:52;;;;;;;5.43;2.87;;;8.50;98.00;;;;;;4992967;28;20464;-64
2023/11/16 07:42:20;;;;;;;6.10;3.00;;;8.60;98.00;;;;;;4992933;28;20460;-64
2023/11/16 07:44:47;;;;;;;7.03;2.33;;;8.60;98.00;;;;;;4992854;28;20459;-64
2023/11/16 07:47:14;;;;;;;9.80;3.03;;;8.50;98.00;;;;;;4992739;28;20742;-64
2023/11/16 07:49:42;;;;;;;6.10;2.60;;;8.50;98.00;;;;;;4992634;28;20457;-64
2023/11/16 07:52:10;;;;;;;4.00;2.77;;;8.50;98.00;;;;;;4992550;28;20488;-64
2023/11/16 07:54:45;;;;;;;7.20;2.60;;;8.40;98.00;;;;;;4992609;28;20539;-64
2023/11/16 07:57:20;;;;;;;6.87;3.00;;;8.50;98.00;;;;;;4992618;28;20460;-63
2023/11/16 07:59:47;;;;;;;5.73;3.03;;;8.50;98.00;;;;;;4992766;28;20460;-63
2023/11/16 08:02:16;;;;;;;9.87;3.50;;;8.60;98.00;;;;;;4992544;28;20452;-63
2023/11/16 08:04:47;;;;;;;6.30;2.93;;;8.60;98.00;;;;;;4992654;28;20460;-64
2023/11/16 08:07:16;;;;;;;8.20;3.93;;;8.60;98.00;;;;;;4991447;28;20555;-63
2023/11/16 08:09:46;;;;;;;13.40;4.77;;;8.60;98.00;;;;;;4992930;28;20487;-63
2023/11/16 08:12:15;;;;;;;7.53;3.87;;;8.70;98.00;;;;;;4991567;28;20494;-63
2023/11/16 08:14:45;;;;;;;13.23;4.50;;;8.80;98.00;;;;;;4992627;28;20453;-63
2023/11/16 08:17:16;;;;;;;8.17;4.10;;;8.80;98.00;;;;;;4991914;28;20477;-63
2023/11/16 08:19:43;;;;;;;10.13;4.30;;;8.90;98.00;;;;;;4992478;28;20460;-64
2023/11/16 08:22:13;;;;;;;9.30;3.73;;;9.10;98.00;;;;;;4992306;28;20446;-64
2023/11/16 08:24:40;;;;;;;6.50;3.27;;;9.20;98.00;;;;;;4992234;28;20470;-64
2023/11/16 08:27:11;;;;;;;6.50;3.30;;;9.30;98.00;;;;;;4992074;28;20526;-64
2023/11/16 08:29:38;;;;;;;6.40;3.30;;;9.40;98.00;;;;;;4992110;28;20515;-64
2023/11/16 08:32:07;;;;;;;6.63;3.43;;;9.50;98.00;;;;;;4991921;28;21049;-64
2023/11/16 08:34:34;;;;;;;8.57;3.37;;;9.40;98.00;;;;;;4990818;28;20496;-64
2023/11/16 08:37:01;;;;;;;8.27;3.57;;;9.50;98.00;;;;;;4992234;28;20456;-64
2023/11/16 08:39:29;;;;;;;8.23;3.60;;;9.60;98.00;;;;;;4991929;28;20469;-64
2023/11/16 08:41:58;;;;;;;9.23;4.30;;;9.70;98.00;;;;;;4991835;28;20490;-65
2023/11/16 08:44:25;;;;;;;7.60;3.90;;;9.70;98.00;;;;;;4991798;28;20495;-64
2023/11/16 08:46:57;;;;;;;8.10;4.10;;;9.60;98.00;;;;;;4991999;28;20460;-64
2023/11/16 08:49:24;;;;;;;8.10;4.60;;;9.70;98.00;;;;;;4992011;28;20564;-64
2023/11/16 08:51:58;;;;;;;10.17;4.87;;;9.80;98.00;;;;;;4991996;28;20480;-64
2023/11/16 08:54:27;;;;;;;11.87;4.97;;;9.80;98.00;;;;;;4991863;28;20872;-63
2023/11/16 08:56:57;;;;;;;21.10;4.57;;;9.90;98.00;;;;;;4991541;28;20942;-63
2023/11/16 08:59:24;;;;;;;10.43;5.17;;;9.80;98.00;;;;;;4991871;28;20494;-63
2023/11/16 09:01:51;;;;;;;10.77;4.37;;;9.80;98.00;;;;;;4991886;28;20550;-64
2023/11/16 09:04:19;;;;;;;16.27;5.43;;;9.80;98.00;;;;;;4991772;28;20504;-63
2023/11/16 09:06:45;;;;;;;13.53;5.20;;;9.90;98.00;;;;;;4991991;28;20452;-63
2023/11/16 09:12:05;;;;;;;14.07;5.50;;;10.10;98.00;;;;;;4991479;28;20487;-64
2023/11/16 09:14:34;;;;;;;14.57;5.43;;;10.20;98.00;;;;;;4991659;28;20482;-64
2023/11/16 09:17:03;;;;;;;16.33;6.03;;;10.20;98.00;;;;;;4991630;28;20448;-65
2023/11/16 09:19:30;;;;;;;16.03;6.10;;;10.30;98.00;;;;;;4991703;28;20863;-64
2023/11/16 09:22:00;;;;;;;18.77;6.03;;;10.40;98.00;;;;;;4991676;28;20834;-64
2023/11/16 09:24:28;;;;;;;11.77;5.50;;;10.60;98.00;;;;;;4991586;28;20452;-64
2023/11/16 09:26:58;;;;;;;11.23;5.67;;;10.70;98.00;;;;;;4991640;28;20453;-63
2023/11/16 09:29:28;;;;;;;11.60;5.40;;;10.70;98.00;;;;;;4994828;28;20456;-65
2023/11/16 09:31:55;;;;;;;10.50;5.20;;;10.60;98.00;;;;;;4995313;28;20540;-64
2023/11/16 09:34:22;;;;;;;9.30;4.30;;;10.40;98.00;;;;;;4995291;28;20483;-63
2023/11/16 09:36:50;;;;;;;10.27;4.60;;;10.40;98.00;;;;;;4995300;28;20463;-64
2023/11/16 09:39:17;;;;;;;11.03;4.83;;;10.40;98.00;;;;;;4995187;28;20492;-64
2023/11/16 09:41:49;;;;;;;10.10;4.10;;;10.60;98.00;;;;;;4992485;28;20462;-64
2023/11/16 09:44:18;;;;;;;8.87;4.67;;;10.60;98.00;;;;;;4994568;28;20509;-64
2023/11/16 09:46:47;;;;;;;11.10;4.50;;;10.70;98.00;;;;;;4994909;28;20449;-63
2023/11/16 09:49:18;;;;;;;10.40;4.40;;;10.70;98.00;;;;;;4994874;28;20944;-63
2023/11/16 09:51:51;;;;;;;8.80;4.47;;;10.70;98.00;;;;;;4995059;28;20495;-64
2023/11/16 09:54:24;;;;;;;8.40;4.10;;;10.80;98.00;;;;;;4994465;28;20813;-63
2023/11/16 09:56:54;;;;;;;9.20;4.57;;;11.00;98.00;;;;;;4994763;28;20500;-64
2023/11/16 09:59:34;;;;;;;8.63;4.10;;;11.00;98.00;;;;;;4994733;28;20449;-64
2023/11/16 10:02:09;;;;;;;10.80;4.70;;;10.90;98.00;;;;;;4994523;28;21150;-63
2023/11/16 10:04:41;;;;;;;8.43;3.80;;;10.80;98.00;;;;;;4994261;28;20456;-64
2023/11/16 10:07:12;;;;;;;7.03;3.43;;;10.70;98.00;;;;;;4994630;28;20487;-63
2023/11/16 10:09:41;;;;;;;8.77;3.87;;;10.70;98.00;;;;;;4994485;28;20468;-63
2023/11/16 10:12:09;;;;;;;5.73;3.30;;;10.60;98.00;;;;;;4994119;28;20482;-64
2023/11/16 10:14:41;;;;;;;7.90;3.07;;;10.50;98.00;;;;;;4994490;28;20459;-64
2023/11/16 10:17:08;;;;;;;9.83;3.60;;;10.50;98.00;;;;;;4994070;28;20557;-64
2023/11/16 10:19:35;;;;;;;5.67;2.70;;;10.50;98.00;;;;;;4993558;28;20452;-64
2023/11/16 10:22:02;;;;;;;8.60;3.47;;;10.60;98.00;;;;;;4994275;28;20862;-64
2023/11/16 10:24:30;;;;;;;5.03;2.90;;;10.40;98.00;;;;;;4994053;28;20925;-64
2023/11/16 10:26:57;;;;;;;5.30;3.30;;;10.50;98.00;;;;;;4994206;28;20471;-64
2023/11/16 10:29:24;;;;;;;7.00;3.13;;;10.50;98.00;;;;;;4994087;28;20527;-64
2023/11/16 10:31:54;;;;;;;6.57;3.40;;;10.60;98.00;;;;;;4993876;28;22432;-64
2023/11/16 10:34:24;;;;;;;7.33;3.07;;;10.60;98.00;;;;;;4994038;28;20830;-63
2023/11/16 10:36:55;;;;;;;6.87;3.27;;;10.60;98.00;;;;;;4993906;28;20485;-65
2023/11/16 10:39:23;;;;;;;8.07;3.30;;;10.60;98.00;;;;;;4993343;28;20557;-64
2023/11/16 10:41:51;;;;;;;7.00;3.40;;;10.50;98.00;;;;;;4993866;28;20837;-65
2023/11/16 10:44:27;;;;;;;6.30;3.10;;;10.50;98.00;;;;;;4993692;28;20457;-64
2023/11/16 10:46:58;;;;;;;5.30;3.33;;;10.60;98.00;;;;;;4993864;28;20456;-65
2023/11/16 10:49:29;;;;;;;6.90;3.60;;;10.70;98.00;;;;;;4993788;28;20785;-64
2023/11/16 10:52:02;;;;;;;9.43;3.83;;;10.80;98.00;;;;;;4993625;28;21093;-65
2023/11/16 10:54:33;;;;;;;8.70;3.33;;;10.80;98.00;;;;;;4993807;28;20452;-64
2023/11/16 10:57:00;;;;;;;7.40;3.40;;;10.80;98.00;;;;;;4992342;28;20470;-64
2023/11/16 10:59:28;;;;;;;7.23;3.60;;;10.60;98.00;;;;;;4993584;28;20457;-63
2023/11/16 11:01:57;;;;;;;8.63;3.47;;;10.60;98.00;;;;;;4993852;28;20455;-64
2023/11/16 11:04:25;;;;;;;11.83;4.03;;;10.40;98.00;;;;;;4993560;28;20499;-65
2023/11/16 11:06:56;;;;;;;8.30;3.90;;;10.40;98.00;;;;;;4993662;28;20462;-65
2023/11/16 11:09:40;;;;;;;12.00;3.67;;;10.40;98.00;;;;;;4993517;28;20461;-63
2023/11/16 11:12:12;;;;;;;11.60;3.60;;;10.50;98.00;;;;;;4992473;28;20489;-65
2023/11/16 11:14:44;;;;;;;3.90;2.77;;;10.50;98.00;;;;;;4993347;28;20463;-63
2023/11/16 11:17:19;;;;;;;5.57;2.90;;;10.40;98.00;;;;;;4993388;28;20450;-64
2023/11/16 11:19:56;;;;;;;5.23;3.00;;;10.50;98.00;;;;;;4993390;28;20832;-64
2023/11/16 11:22:28;;;;;;;9.73;2.93;;;10.60;98.00;;;;;;4993465;28;20496;-65
2023/11/16 11:24:55;;;;;;;9.17;3.40;;;10.60;98.00;;;;;;4993257;28;20469;-63
2023/11/16 11:27:25;;;;;;;5.30;3.23;;;10.60;98.00;;;;;;4993489;28;20457;-64
2023/11/16 11:29:54;;;;;;;9.53;3.70;;;10.60;98.00;;;;;;4992435;28;20458;-63
2023/11/16 11:32:29;;;;;;;5.23;2.80;;;10.60;98.00;;;;;;4993408;28;21050;-64
2023/11/16 11:34:57;;;;;;;4.47;2.70;;;10.60;98.00;;;;;;4992958;28;20455;-64
2023/11/16 11:37:37;;;;;;;6.57;3.27;;;11.00;98.00;;;;;;4991840;28;20455;-64
2023/11/16 11:40:08;;;;;;;8.90;3.70;;;11.00;98.00;;;;;;4993027;28;20480;-64
2023/11/16 11:42:37;;;;;;;7.07;3.20;;;11.10;98.00;;;;;;4993065;28;20543;-64
2023/11/16 11:45:08;;;;;;;5.63;2.67;;;11.10;98.00;;;;;;4992905;28;20462;-64
2023/11/16 11:47:38;;;;;;;5.00;2.67;;;11.10;98.00;;;;;;4992877;28;20478;-63
2023/11/16 11:50:07;;;;;;;4.70;2.80;;;11.10;98.00;;;;;;4992624;28;20462;-64
2023/11/16 11:52:36;;;;;;;4.90;2.97;;;11.10;98.00;;;;;;4991971;28;20491;-64
2023/11/16 11:55:06;;;;;;;4.97;2.87;;;11.30;98.00;;;;;;4992368;28;20461;-64
2023/11/16 11:57:34;;;;;;;3.57;2.90;;;11.50;98.00;;;;;;4991701;28;20464;-64
2023/11/16 12:00:01;;;;;;;4.90;2.73;;;11.50;98.00;;;;;;4991353;28;20466;-64
2023/11/16 12:02:28;;;;;;;6.70;3.10;;;11.50;98.00;;;;;;4992468;28;20456;-63
2023/11/16 12:04:56;;;;;;;7.30;3.10;;;11.50;98.00;;;;;;4992639;28;20458;-64
2023/11/16 12:07:24;;;;;;;6.00;3.50;;;11.50;98.00;;;;;;4992336;28;20450;-64
2023/11/16 12:09:53;;;;;;;6.27;3.40;;;11.50;98.00;;;;;;4992606;28;20781;-64
2023/11/16 12:12:20;;;;;;;7.47;3.07;;;11.50;98.00;;;;;;4992324;28;21009;-64
2023/11/16 12:14:48;;;;;;;7.33;3.80;;;11.40;98.00;;;;;;4992349;28;20462;-65
2023/11/16 12:17:17;;;;;;;9.77;3.50;;;11.40;98.00;;;;;;4992162;28;20824;-65
2023/11/16 12:19:48;;;;;;;7.53;3.20;;;11.40;98.00;;;;;;4992242;28;20446;-64
2023/11/16 12:22:17;;;;;;;11.40;3.60;;;11.50;98.00;;;;;;4992291;28;20491;-64
2023/11/16 12:24:45;;;;;;;8.47;3.83;;;11.60;98.00;;;;;;4992224;28;20463;-63
2023/11/16 12:27:16;;;;;;;7.20;3.80;;;11.60;98.00;;;;;;4992211;28;20503;-65
2023/11/16 12:29:54;;;;;;;7.27;3.33;;;11.50;98.00;;;;;;4992089;28;20462;-63
2023/11/16 12:32:21;;;;;;;8.47;3.77;;;11.50;98.00;;;;;;4991981;28;20499;-63
2023/11/16 12:34:49;;;;;;;8.00;3.40;;;11.50;98.00;;;;;;4992122;28;20458;-64
2023/11/16 12:37:18;;;;;;;17.93;4.50;;;11.50;98.00;;;;;;4991941;28;21009;-64
2023/11/16 12:39:45;;;;;;;7.33;3.77;;;11.50;98.00;;;;;;4992027;28;20942;-64
2023/11/16 12:42:12;;;;;;;7.17;3.57;;;11.50;98.00;;;;;;4991959;28;20972;-65
2023/11/16 12:44:40;;;;;;;10.20;4.03;;;11.40;98.00;;;;;;4990774;28;20462;-64
2023/11/16 12:47:08;;;;;;;5.43;3.20;;;11.40;98.00;;;;;;4991594;28;20868;-64
2023/11/16 12:49:35;;;;;;;6.10;3.60;;;11.40;98.00;;;;;;4991836;28;20491;-64
2023/11/16 12:52:03;;;;;;;7.90;3.53;;;11.30;98.00;;;;;;4991798;28;20543;-64
2023/11/16 12:54:31;;;;;;;5.53;3.10;;;11.20;98.00;;;;;;4991518;28;20489;-64
2023/11/16 12:57:00;;;;;;;8.07;3.17;;;11.20;98.00;;;;;;4991455;28;20472;-64
2023/11/16 12:59:27;;;;;;;13.50;3.30;;;11.10;98.00;;;;;;4991828;28;20456;-64
2023/11/16 13:01:54;;;;;;;12.77;4.17;;;11.10;98.00;;;;;;4991853;28;20455;-64
2023/11/16 13:04:22;;;;;;;5.43;3.30;;;11.10;98.00;;;;;;4995064;28;20820;-64